Time,TemperatureF,DewpointF,PressureIn,WindDirection,WindDirectionDegrees,WindSpeedMPH,WindSpeedGustMPH,Humidity,HourlyPrecipIn,Conditions,Clouds,dailyrainin,SolarRadiationWatts/m^2,SoftwareType,DateUTC
2013-09-12 00:12:00,48.0,35.0,-100.00,NW,326,0.0,0.0,60,0.00,,,0.00,0.000000,,2013-09-12 07:12:00,
2013-09-12 00:21:00,48.0,35.0,-100.00,NW,326,0.0,0.0,60,0.00,,,0.00,0.000000,,2013-09-12 07:21:00,
2013-09-12 00:32:00,48.0,35.0,-100.00,NW,326,0.0,0.0,60,0.00,,,0.00,0.000000,,2013-09-12 07:32:00,
2013-09-12 01:11:00,46.0,34.0,-100.00,North,0,0.0,0.0,63,0.00,,,0.00,0.000000,,2013-09-12 08:11:00,
2013-09-12 01:22:00,46.0,34.0,-100.00,North,0,0.0,0.0,63,0.00,,,0.00,0.000000,,2013-09-12 08:22:00,
2013-09-12 01:32:00,46.0,34.0,-100.00,North,0,0.0,0.0,63,0.00,,,0.00,0.000000,,2013-09-12 08:32:00,
2013-09-12 02:12:00,46.0,35.0,-100.00,NNW,333,0.0,0.0,64,0.00,,,0.00,0.000000,,2013-09-12 09:12:00,
2013-09-12 02:21:00,46.0,35.0,-100.00,NNW,333,0.0,0.0,64,0.00,,,0.00,0.000000,,2013-09-12 09:21:00,
2013-09-12 02:33:00,46.0,35.0,-100.00,NNW,333,0.0,0.0,64,0.00,,,0.00,0.000000,,2013-09-12 09:33:00,
2013-09-12 03:12:00,47.0,35.0,-100.00,North,354,0.0,0.0,63,0.00,,,0.00,0.000000,,2013-09-12 10:12:00,
2013-09-12 03:23:00,47.0,35.0,-100.00,North,354,0.0,0.0,63,0.00,,,0.00,0.000000,,2013-09-12 10:23:00,
2013-09-12 03:33:00,47.0,35.0,-100.00,North,354,0.0,0.0,63,0.00,,,0.00,0.000000,,2013-09-12 10:33:00,
2013-09-12 04:11:00,45.0,33.0,-100.00,North,7,0.0,0.0,63,0.00,,,0.00,0.000000,,2013-09-12 11:11:00,
2013-09-12 04:22:00,45.0,33.0,-100.00,North,7,0.0,0.0,63,0.00,,,0.00,0.000000,,2013-09-12 11:22:00,
2013-09-12 04:33:00,45.0,33.0,-100.00,North,7,0.0,0.0,63,0.00,,,0.00,0.000000,,2013-09-12 11:33:00,
2013-09-12 05:11:00,47.0,36.0,-100.00,North,355,0.0,0.0,65,0.00,,,0.00,0.000000,,2013-09-12 12:11:00,
2013-09-12 05:21:00,47.0,36.0,-100.00,North,355,0.0,0.0,65,0.00,,,0.00,0.000000,,2013-09-12 12:21:00,
2013-09-12 05:31:00,47.0,36.0,-100.00,North,355,0.0,0.0,65,0.00,,,0.00,0.000000,,2013-09-12 12:31:00,
2013-09-12 06:11:00,45.0,34.0,-100.00,NNW,339,0.0,0.0,66,0.00,,,0.00,0.000000,,2013-09-12 13:11:00,
2013-09-12 06:22:00,45.0,34.0,-100.00,NNW,339,0.0,0.0,66,0.00,,,0.00,0.000000,,2013-09-12 13:22:00,
2013-09-12 06:32:00,45.0,34.0,-100.00,NNW,339,0.0,0.0,66,0.00,,,0.00,0.000000,,2013-09-12 13:32:00,
2013-09-12 07:11:00,45.0,34.0,-100.00,North,351,0.0,0.0,65,0.00,,,-99.99,0.000000,,2013-09-12 14:11:00,
2013-09-12 07:22:00,45.0,34.0,-100.00,North,351,0.0,0.0,65,0.00,,,-99.99,0.000000,,2013-09-12 14:22:00,
2013-09-12 07:32:00,45.0,34.0,-100.00,North,351,0.0,0.0,65,0.00,,,-99.99,0.000000,,2013-09-12 14:32:00,
2013-09-12 08:11:00,55.0,39.0,-100.00,North,11,0.0,0.0,54,0.00,,,0.00,75.000000,,2013-09-12 15:11:00,
2013-09-12 08:22:00,55.0,39.0,-100.00,North,11,0.0,0.0,54,0.00,,,0.00,75.000000,,2013-09-12 15:22:00,
2013-09-12 08:33:00,55.0,39.0,-100.00,North,11,0.0,0.0,54,0.00,,,0.00,75.000000,,2013-09-12 15:33:00,
2013-09-12 18:11:00,69.0,25.0,-100.00,South,183,1.0,11.0,19,-99.99,,,0.00,360.000000,,2013-09-13 01:11:00,
2013-09-12 18:22:00,69.0,25.0,-100.00,South,183,1.0,11.0,19,-99.99,,,0.00,360.000000,,2013-09-13 01:22:00,
2013-09-12 18:32:00,69.0,25.0,-100.00,South,183,1.0,11.0,19,-99.99,,,0.00,360.000000,,2013-09-13 01:32:00,
2013-09-12 19:11:00,64.0,26.0,-100.00,South,185,0.0,7.0,24,0.00,,,0.00,34.000000,,2013-09-13 02:11:00,
2013-09-12 19:22:00,64.0,26.0,-100.00,South,185,0.0,7.0,24,0.00,,,0.00,34.000000,,2013-09-13 02:22:00,
2013-09-12 19:32:00,64.0,26.0,-100.00,South,185,0.0,7.0,24,0.00,,,0.00,34.000000,,2013-09-13 02:32:00,
2013-09-12 20:11:00,58.0,29.0,-100.00,North,349,0.0,2.0,33,0.00,,,0.00,4.000000,,2013-09-13 03:11:00,
2013-09-12 20:22:00,58.0,29.0,-100.00,North,349,0.0,2.0,33,0.00,,,0.00,4.000000,,2013-09-13 03:22:00,
2013-09-12 20:34:00,58.0,29.0,-100.00,North,349,0.0,2.0,33,0.00,,,0.00,4.000000,,2013-09-13 03:34:00,
2013-09-12 21:14:00,51.0,27.0,-100.00,North,350,0.0,0.0,39,0.00,,,0.00,0.000000,,2013-09-13 04:14:00,
2013-09-12 21:24:00,51.0,27.0,-100.00,North,350,0.0,0.0,39,0.00,,,0.00,0.000000,,2013-09-13 04:24:00,
2013-09-12 21:34:00,51.0,27.0,-100.00,North,350,0.0,0.0,39,0.00,,,0.00,0.000000,,2013-09-13 04:34:00,
2013-09-12 22:13:00,50.0,28.0,-100.00,North,3,0.0,0.0,42,0.00,,,0.00,0.000000,,2013-09-13 05:13:00,
2013-09-12 22:22:00,50.0,28.0,-100.00,North,3,0.0,0.0,42,0.00,,,0.00,0.000000,,2013-09-13 05:22:00,
2013-09-12 22:33:00,50.0,28.0,-100.00,North,3,0.0,0.0,42,0.00,,,0.00,0.000000,,2013-09-13 05:33:00,
2013-09-12 23:12:00,49.0,27.0,-100.00,North,359,0.0,0.0,42,0.00,,,-99.99,0.000000,,2013-09-13 06:12:00,
2013-09-12 23:22:00,49.0,27.0,-100.00,North,359,0.0,0.0,42,0.00,,,-99.99,0.000000,,2013-09-13 06:22:00,
2013-09-12 23:32:00,49.0,27.0,-100.00,North,359,0.0,0.0,42,0.00,,,-99.99,0.000000,,2013-09-13 06:32:00,